createdAt,value
2023-02-12T00:01:57.796Z,4.17
2023-02-12T00:04:24.194Z,4.16
2023-02-12T00:06:50.578Z,4.08
2023-02-12T00:09:16.957Z,4.13
2023-02-12T00:11:43.335Z,4.04
2023-02-12T00:14:09.755Z,4.10
2023-02-12T00:16:36.287Z,4.07
2023-02-12T00:19:02.794Z,4.10
2023-02-12T00:21:29.215Z,4.04
2023-02-12T00:23:55.918Z,4.02
2023-02-12T00:26:23.112Z,4.05
2023-02-12T00:28:50.574Z,4.02
2023-02-12T00:31:20.680Z,4.01
2023-02-12T00:33:47.230Z,3.93
2023-02-12T00:36:21.313Z,4.07
2023-02-12T00:38:49.412Z,4.08
2023-02-12T00:41:15.795Z,4.00
2023-02-12T00:43:42.197Z,4.06
2023-02-12T00:46:08.992Z,4.09
2023-02-12T00:48:36.578Z,4.07
2023-02-12T00:51:04.207Z,3.94
2023-02-12T00:53:31.052Z,4.04
2023-02-12T00:55:58.025Z,4.06
2023-02-12T00:58:24.569Z,4.00
2023-02-12T01:00:50.997Z,4.02
2023-02-12T01:03:17.371Z,4.01
2023-02-12T01:05:43.754Z,3.98
2023-02-12T01:08:15.668Z,3.99
2023-02-12T01:10:43.524Z,4.04
2023-02-12T01:13:13.911Z,4.14
2023-02-12T01:15:41.321Z,4.12
2023-02-12T01:18:07.964Z,4.20
2023-02-12T01:20:34.841Z,4.21
2023-02-12T01:23:01.603Z,4.21
2023-02-12T01:25:28.009Z,4.21
2023-02-12T01:27:54.486Z,4.20
2023-02-12T01:30:24.070Z,4.25
2023-02-12T01:32:50.516Z,4.25
2023-02-12T01:35:17.021Z,4.21
2023-02-12T01:37:43.399Z,4.29
2023-02-12T01:40:14.664Z,4.21
2023-02-12T01:42:41.070Z,4.23
2023-02-12T01:45:30.471Z,4.28
2023-02-12T01:48:00.562Z,4.27
2023-02-12T01:50:27.055Z,4.27
2023-02-12T01:52:58.344Z,4.24
2023-02-12T01:55:25.535Z,4.23
2023-02-12T01:57:52.057Z,4.26
2023-02-12T02:00:24.896Z,4.22
2023-02-12T02:02:58.633Z,4.20
2023-02-12T02:05:42.016Z,4.21
2023-02-12T02:08:09.808Z,4.21
2023-02-12T02:10:36.322Z,4.23
2023-02-12T02:13:21.618Z,4.20
2023-02-12T02:15:51.435Z,4.15
2023-02-12T02:18:26.863Z,4.12
2023-02-12T02:21:47.267Z,4.19
2023-02-12T02:24:30.735Z,4.19
2023-02-12T02:27:15.968Z,4.16
2023-02-12T02:30:10.219Z,4.14
2023-02-12T02:32:48.231Z,4.15
2023-02-12T02:35:48.961Z,4.14
2023-02-12T02:38:22.994Z,4.14
2023-02-12T02:40:59.405Z,4.11
2023-02-12T02:43:50.315Z,4.14
2023-02-12T02:46:32.503Z,4.11
2023-02-12T02:49:03.696Z,4.04
2023-02-12T02:51:38.944Z,4.05
2023-02-12T02:54:30.916Z,4.10
2023-02-12T02:57:14.125Z,4.01
2023-02-12T02:59:46.405Z,4.01
2023-02-12T03:02:18.520Z,4.03
2023-02-12T03:04:55.181Z,4.05
2023-02-12T03:07:41.112Z,4.05
2023-02-12T03:10:17.181Z,4.04
2023-02-12T03:12:57.018Z,4.03
2023-02-12T03:15:23.663Z,4.02
2023-02-12T03:17:51.065Z,4.01
2023-02-12T03:20:22.314Z,3.93
2023-02-12T03:22:58.155Z,3.99
2023-02-12T03:25:50.952Z,3.99
2023-02-12T03:28:27.905Z,3.97
2023-02-12T03:31:33.344Z,4.02
2023-02-12T03:34:05.499Z,4.01
2023-02-12T03:36:57.215Z,3.96
2023-02-12T03:39:41.212Z,3.93
2023-02-12T03:42:44.000Z,3.93
2023-02-12T03:45:38.449Z,3.90
2023-02-12T03:48:43.274Z,4.04
2023-02-12T03:51:22.272Z,4.00
2023-02-12T03:53:49.226Z,3.92
2023-02-12T03:56:22.219Z,3.92
2023-02-12T03:58:48.653Z,3.94
2023-02-12T04:01:15.357Z,3.92
2023-02-12T04:03:41.999Z,3.92
2023-02-12T04:06:20.882Z,4.02
2023-02-12T04:08:47.426Z,4.00
2023-02-12T04:11:25.343Z,4.02
2023-02-12T04:14:27.312Z,4.07
2023-02-12T04:17:08.683Z,3.97
2023-02-12T04:19:59.484Z,3.98
2023-02-12T04:22:36.214Z,4.06
2023-02-12T04:25:15.108Z,4.06
2023-02-12T04:27:54.874Z,4.05
2023-02-12T04:30:28.648Z,4.05
2023-02-12T04:33:03.877Z,3.99
2023-02-12T04:35:35.560Z,4.07
2023-02-12T04:38:21.619Z,3.99
2023-02-12T04:40:49.000Z,4.00
2023-02-12T04:43:15.394Z,4.02
2023-02-12T04:45:41.939Z,4.04
2023-02-12T04:48:08.406Z,3.95
2023-02-12T04:50:43.176Z,4.05
2023-02-12T04:53:10.303Z,4.03
2023-02-12T04:55:37.011Z,4.02
2023-02-12T04:58:03.949Z,4.05
2023-02-12T05:00:30.353Z,3.95
2023-02-12T05:02:56.794Z,3.98
2023-02-12T05:05:23.656Z,3.91
2023-02-12T05:07:50.457Z,3.95
2023-02-12T05:10:16.943Z,3.93
2023-02-12T05:12:43.311Z,3.99
2023-02-12T05:15:09.901Z,3.94
2023-02-12T05:17:36.405Z,3.92
2023-02-12T05:20:02.942Z,3.87
2023-02-12T05:22:29.341Z,3.90
2023-02-12T05:24:55.732Z,3.92
2023-02-12T05:27:22.149Z,3.94
2023-02-12T05:29:48.506Z,3.88
2023-02-12T05:32:14.930Z,3.91
2023-02-12T05:34:41.296Z,3.90
2023-02-12T05:37:07.634Z,3.84
2023-02-12T05:39:33.994Z,3.83
2023-02-12T05:42:00.352Z,3.89
2023-02-12T05:44:26.828Z,3.85
2023-02-12T05:46:53.311Z,3.80
2023-02-12T05:49:19.691Z,3.86
2023-02-12T05:51:46.051Z,3.79
2023-02-12T05:54:12.435Z,3.78
2023-02-12T05:56:45.545Z,3.76
2023-02-12T05:59:23.435Z,3.76
2023-02-12T06:01:51.582Z,3.83
2023-02-12T06:04:26.577Z,3.82
2023-02-12T06:06:54.054Z,3.83
2023-02-12T06:09:20.472Z,3.82
2023-02-12T06:11:46.933Z,3.82
2023-02-12T06:14:17.338Z,3.82
2023-02-12T06:16:48.699Z,3.79
2023-02-12T06:19:15.954Z,3.80
2023-02-12T06:21:42.898Z,3.71
2023-02-12T06:24:11.988Z,3.78
2023-02-12T06:26:38.678Z,3.78
2023-02-12T06:29:05.422Z,3.68
2023-02-12T06:31:35.613Z,3.69
2023-02-12T06:34:05.151Z,3.70
2023-02-12T06:36:31.590Z,3.66
2023-02-12T06:38:58.407Z,3.67
2023-02-12T06:41:24.876Z,3.64
2023-02-12T06:43:51.282Z,3.70
2023-02-12T06:46:17.772Z,3.73
2023-02-12T06:48:44.416Z,3.75
2023-02-12T06:51:17.206Z,3.68
2023-02-12T06:53:44.399Z,3.69
2023-02-12T06:56:13.193Z,3.68
2023-02-12T06:58:47.803Z,3.75
2023-02-12T07:01:19.646Z,3.76
2023-02-12T07:03:51.870Z,3.76
2023-02-12T07:06:18.754Z,3.76
2023-02-12T07:08:45.781Z,3.77
2023-02-12T07:11:12.227Z,3.78
2023-02-12T07:13:40.936Z,3.73
2023-02-12T07:16:09.949Z,3.81
2023-02-12T07:18:37.555Z,3.79
2023-02-12T07:21:05.383Z,3.82
2023-02-12T07:23:32.510Z,3.79
2023-02-12T07:26:00.994Z,3.86
2023-02-12T07:28:28.127Z,3.88
2023-02-12T07:30:54.786Z,3.82
2023-02-12T07:33:21.196Z,3.91
2023-02-12T07:35:47.578Z,3.92
2023-02-12T07:38:14.002Z,3.91
2023-02-12T07:40:40.384Z,3.90
2023-02-12T07:43:06.731Z,3.96
2023-02-12T07:45:33.268Z,3.96
2023-02-12T07:47:59.660Z,4.07
2023-02-12T07:50:26.036Z,4.08
2023-02-12T07:52:52.412Z,4.06
2023-02-12T07:55:19.838Z,4.08
2023-02-12T07:57:46.185Z,4.16
2023-02-12T08:00:13.101Z,4.11
2023-02-12T08:02:39.550Z,4.19
2023-02-12T08:05:06.484Z,4.24
2023-02-12T08:07:32.900Z,4.21
2023-02-12T08:09:59.268Z,4.29
2023-02-12T08:12:25.632Z,4.27
2023-02-12T08:14:52.036Z,4.33
2023-02-12T08:17:18.396Z,4.42
2023-02-12T08:19:44.762Z,4.50
2023-02-12T08:22:11.124Z,4.57
2023-02-12T08:24:37.630Z,4.56
2023-02-12T08:27:05.376Z,4.58
2023-02-12T08:29:31.818Z,4.61
2023-02-12T08:32:00.555Z,4.71
2023-02-12T08:34:30.336Z,4.73
2023-02-12T08:36:58.026Z,4.79
2023-02-12T08:39:26.241Z,4.83
2023-02-12T08:41:55.631Z,4.77
2023-02-12T08:44:22.333Z,4.69
2023-02-12T08:46:50.989Z,4.82
2023-02-12T08:49:19.950Z,4.76
2023-02-12T08:51:49.476Z,4.76
2023-02-12T08:54:19.213Z,4.83
2023-02-12T08:56:45.641Z,4.80
2023-02-12T08:59:13.752Z,4.88
2023-02-12T09:01:41.841Z,4.89
2023-02-12T09:04:17.656Z,4.89
2023-02-12T09:06:44.998Z,4.94
2023-02-12T09:09:11.503Z,4.99
2023-02-12T09:11:37.966Z,4.93
2023-02-12T09:14:07.393Z,4.96
2023-02-12T09:16:35.946Z,5.01
2023-02-12T09:19:03.532Z,5.01
2023-02-12T09:21:29.950Z,5.05
2023-02-12T09:23:56.733Z,5.07
2023-02-12T09:26:27.768Z,5.02
2023-02-12T09:28:55.225Z,5.11
2023-02-12T09:31:27.431Z,5.14
2023-02-12T09:33:58.302Z,5.08
2023-02-12T09:36:25.148Z,5.10
2023-02-12T09:38:51.609Z,5.15
2023-02-12T09:41:49.977Z,5.20
2023-02-12T09:44:35.227Z,5.12
2023-02-12T09:47:10.553Z,5.13
2023-02-12T09:50:09.442Z,5.23
2023-02-12T09:52:37.330Z,5.23
2023-02-12T09:55:04.152Z,5.26
2023-02-12T09:57:34.547Z,5.21
2023-02-12T10:00:14.627Z,5.32
2023-02-12T10:02:41.417Z,5.36
2023-02-12T10:05:17.521Z,5.42
2023-02-12T10:07:43.839Z,5.47
2023-02-12T10:10:49.448Z,5.50
2023-02-12T10:13:42.240Z,5.51
2023-02-12T10:16:27.218Z,5.64
2023-02-12T10:19:29.773Z,5.70
2023-02-12T10:22:04.931Z,5.74
2023-02-12T10:24:59.054Z,5.64
2023-02-12T10:27:38.633Z,5.77
2023-02-12T10:30:18.533Z,5.85
2023-02-12T10:32:47.633Z,5.80
2023-02-12T10:35:16.407Z,5.74
2023-02-12T10:37:56.009Z,5.80
2023-02-12T10:40:29.912Z,5.74
2023-02-12T10:42:57.906Z,5.75
2023-02-12T10:45:30.040Z,5.73
2023-02-12T10:48:08.204Z,5.73
2023-02-12T10:51:09.687Z,5.76
2023-02-12T10:53:41.585Z,5.64
2023-02-12T10:56:21.593Z,5.76
2023-02-12T10:58:54.802Z,5.74
2023-02-12T11:01:27.050Z,5.81
2023-02-12T11:03:56.145Z,5.84
2023-02-12T11:06:28.626Z,5.90
2023-02-12T11:08:55.957Z,5.94
2023-02-12T11:11:31.157Z,5.87
2023-02-12T11:14:02.742Z,5.88
2023-02-12T11:16:32.737Z,5.85
2023-02-12T11:19:08.752Z,5.88
2023-02-12T11:21:36.351Z,5.97
2023-02-12T11:24:21.284Z,5.95
2023-02-12T11:26:47.650Z,5.97
2023-02-12T11:29:24.380Z,5.90
2023-02-12T11:32:05.864Z,5.94
2023-02-12T11:34:32.443Z,5.93
2023-02-12T11:36:59.088Z,5.99
2023-02-12T11:39:39.877Z,5.94
2023-02-12T11:42:19.463Z,6.10
2023-02-12T11:44:58.450Z,6.09
2023-02-12T11:47:33.735Z,6.17
2023-02-12T11:50:15.509Z,6.21
2023-02-12T11:52:42.700Z,6.24
2023-02-12T11:55:27.627Z,6.28
2023-02-12T11:58:16.413Z,6.21
2023-02-12T12:01:14.002Z,6.30
2023-02-12T12:03:52.139Z,6.35
2023-02-12T12:06:31.460Z,6.35
2023-02-12T12:09:18.097Z,6.38
2023-02-12T12:12:03.591Z,6.34
2023-02-12T12:14:54.873Z,6.37
2023-02-12T12:17:46.511Z,6.46
2023-02-12T12:20:17.616Z,6.50
2023-02-12T12:23:09.653Z,6.52
2023-02-12T12:25:43.753Z,6.57
2023-02-12T12:28:10.707Z,6.57
2023-02-12T12:31:03.238Z,6.51
2023-02-12T12:33:38.219Z,6.54
2023-02-12T12:36:13.538Z,6.65
2023-02-12T12:38:55.896Z,6.71
2023-02-12T12:41:34.358Z,6.76
2023-02-12T12:44:22.221Z,6.74
2023-02-12T12:46:55.858Z,6.63
2023-02-12T12:49:34.910Z,6.64
2023-02-12T12:52:10.920Z,6.64
2023-02-12T12:54:56.616Z,6.71
2023-02-12T12:57:33.240Z,6.63
2023-02-12T13:00:16.428Z,6.70
2023-02-12T13:02:52.677Z,6.66
2023-02-12T13:05:31.468Z,6.66
2023-02-12T13:08:13.680Z,6.81
2023-02-12T13:10:50.714Z,6.70
2023-02-12T13:13:37.435Z,6.90
2023-02-12T13:16:30.781Z,6.87
2023-02-12T13:19:29.908Z,6.72
2023-02-12T13:22:21.632Z,6.85
2023-02-12T13:24:54.958Z,6.90
2023-02-12T13:27:27.612Z,6.80
2023-02-12T13:30:17.204Z,6.89
2023-02-12T13:32:59.084Z,6.91
2023-02-12T13:35:26.208Z,6.91
2023-02-12T13:37:54.418Z,6.94
2023-02-12T13:40:26.790Z,6.94
2023-02-12T13:43:20.253Z,7.00
2023-02-12T13:46:08.547Z,7.00
2023-02-12T13:48:51.035Z,6.94
2023-02-12T13:51:32.652Z,7.00
2023-02-12T13:54:24.620Z,7.02
2023-02-12T13:56:57.645Z,7.02
2023-02-12T13:59:33.135Z,7.08
2023-02-12T14:02:11.792Z,7.07
2023-02-12T14:04:41.823Z,7.08
2023-02-12T14:07:12.442Z,7.07
2023-02-12T14:09:46.818Z,7.05
2023-02-12T14:12:17.296Z,7.08
2023-02-12T14:14:47.584Z,7.13
2023-02-12T14:17:29.353Z,7.11
2023-02-12T14:20:22.076Z,7.09
2023-02-12T14:22:48.385Z,7.12
2023-02-12T14:25:14.710Z,7.09
2023-02-12T14:27:54.194Z,7.08
2023-02-12T14:30:31.079Z,7.03
2023-02-12T14:33:06.369Z,7.12
2023-02-12T14:35:37.055Z,7.09
2023-02-12T14:38:32.179Z,7.09
2023-02-12T14:41:34.025Z,7.09
2023-02-12T14:44:23.485Z,7.07
2023-02-12T14:46:57.920Z,7.01
2023-02-12T14:49:34.310Z,7.00
2023-02-12T14:52:14.166Z,7.07
2023-02-12T14:54:49.322Z,7.05
2023-02-12T14:57:31.954Z,7.06
2023-02-12T15:00:18.122Z,7.06
2023-02-12T15:02:52.569Z,7.00
2023-02-12T15:05:25.009Z,7.00
2023-02-12T15:08:23.684Z,7.03
2023-02-12T15:10:55.617Z,6.92
2023-02-12T15:13:21.972Z,7.03
2023-02-12T15:16:15.768Z,7.06
2023-02-12T15:18:54.911Z,7.07
2023-02-12T15:21:27.629Z,6.93
2023-02-12T15:24:08.430Z,6.87
2023-02-12T15:26:45.306Z,6.84
2023-02-12T15:29:27.603Z,6.93
2023-02-12T15:32:04.031Z,6.95
2023-02-12T15:34:33.632Z,6.93
2023-02-12T15:37:02.433Z,6.89
2023-02-12T15:39:40.514Z,6.89
2023-02-12T15:42:24.051Z,6.84
2023-02-12T15:44:50.572Z,6.85
2023-02-12T15:47:17.235Z,6.78
2023-02-12T15:49:44.001Z,6.84
2023-02-12T15:52:18.957Z,6.75
2023-02-12T15:54:47.190Z,6.82
2023-02-12T15:57:21.538Z,6.77
2023-02-12T16:00:03.451Z,6.69
2023-02-12T16:02:32.968Z,6.64
2023-02-12T16:05:02.089Z,6.66
2023-02-12T16:07:34.998Z,6.63
2023-02-12T16:10:03.515Z,6.56
2023-02-12T16:12:34.291Z,6.62
2023-02-12T16:15:00.939Z,6.54
2023-02-12T16:17:30.359Z,6.53
2023-02-12T16:20:25.553Z,6.46
2023-02-12T16:22:52.645Z,6.37
2023-02-12T16:25:22.462Z,6.39
2023-02-12T16:28:13.391Z,6.27
2023-02-12T16:30:42.965Z,6.30
2023-02-12T16:33:32.076Z,6.28
2023-02-12T16:36:06.535Z,6.17
2023-02-12T16:38:41.805Z,6.20
2023-02-12T16:41:23.652Z,6.15
2023-02-12T16:44:01.910Z,6.06
2023-02-12T16:46:33.367Z,5.97
2023-02-12T16:49:02.089Z,5.96
2023-02-12T16:51:31.897Z,5.85
2023-02-12T16:54:01.419Z,5.75
2023-02-12T16:56:32.586Z,5.56
2023-02-12T16:59:00.705Z,5.56
2023-02-12T17:01:33.462Z,5.47
2023-02-12T17:04:02.087Z,5.28
2023-02-12T17:06:31.170Z,5.22
2023-02-12T17:08:58.066Z,5.09
2023-02-12T17:11:27.263Z,4.95
2023-02-12T17:13:54.939Z,4.96
2023-02-12T17:16:31.140Z,4.83
2023-02-12T17:18:59.086Z,4.69
2023-02-12T17:21:29.600Z,4.62
2023-02-12T17:23:56.059Z,4.42
2023-02-12T17:26:24.114Z,4.35
2023-02-12T17:28:50.769Z,4.24
2023-02-12T17:31:17.563Z,4.18
2023-02-12T17:33:44.420Z,4.17
2023-02-12T17:36:11.769Z,3.98
2023-02-12T17:38:38.152Z,3.94
2023-02-12T17:41:09.767Z,3.78
2023-02-12T17:43:36.273Z,3.72
2023-02-12T17:46:08.646Z,3.68
2023-02-12T17:48:35.014Z,3.54
2023-02-12T17:51:01.399Z,3.50
2023-02-12T17:53:27.750Z,3.42
2023-02-12T17:55:54.301Z,3.36
2023-02-12T17:58:20.671Z,3.32
2023-02-12T18:00:47.021Z,3.29
2023-02-12T18:03:13.438Z,3.24
2023-02-12T18:05:42.516Z,3.16
2023-02-12T18:08:10.127Z,3.03
2023-02-12T18:10:43.540Z,3.01
2023-02-12T18:13:10.800Z,3.07
2023-02-12T18:15:39.282Z,3.01
2023-02-12T18:18:05.702Z,2.89
2023-02-12T18:20:32.122Z,2.83
2023-02-12T18:22:58.563Z,2.72
2023-02-12T18:25:25.003Z,2.67
2023-02-12T18:27:51.407Z,2.74
2023-02-12T18:30:18.052Z,2.64
2023-02-12T18:32:44.406Z,2.62
2023-02-12T18:35:10.802Z,2.51
2023-02-12T18:37:37.179Z,2.63
2023-02-12T18:40:03.866Z,2.64
2023-02-12T18:42:33.202Z,2.61
2023-02-12T18:44:59.595Z,2.61
2023-02-12T18:47:26.005Z,2.53
2023-02-12T18:49:52.388Z,2.56
2023-02-12T18:52:18.844Z,2.50
2023-02-12T18:54:45.277Z,2.49
2023-02-12T18:57:11.694Z,2.62
2023-02-12T18:59:38.069Z,2.54
2023-02-12T19:02:05.912Z,2.64
2023-02-12T19:04:32.435Z,2.62
2023-02-12T19:06:58.898Z,2.68
2023-02-12T19:09:26.412Z,2.56
2023-02-12T19:11:56.199Z,2.58
2023-02-12T19:14:24.074Z,2.54
2023-02-12T19:16:51.272Z,2.59
2023-02-12T19:19:20.128Z,2.51
2023-02-12T19:21:47.109Z,2.59
2023-02-12T19:24:15.083Z,2.63
2023-02-12T19:26:44.263Z,2.65
2023-02-12T19:29:12.040Z,2.64
2023-02-12T19:31:41.225Z,2.57
2023-02-12T19:34:19.617Z,2.74
2023-02-12T19:36:47.446Z,2.59
2023-02-12T19:39:16.118Z,2.63
2023-02-12T19:41:42.710Z,2.52
2023-02-12T19:44:12.256Z,2.47
2023-02-12T19:46:40.441Z,2.47
2023-02-12T19:49:08.191Z,2.43
2023-02-12T19:51:34.648Z,2.52
2023-02-12T19:54:02.472Z,2.40
2023-02-12T19:56:28.975Z,2.35
2023-02-12T19:58:57.412Z,2.32
2023-02-12T20:01:24.714Z,2.29
2023-02-12T20:03:52.795Z,2.32
2023-02-12T20:06:24.632Z,2.35
2023-02-12T20:08:51.661Z,2.41
2023-02-12T20:11:22.282Z,2.36
2023-02-12T20:13:49.195Z,2.40
2023-02-12T20:16:19.157Z,2.47
2023-02-12T20:18:47.554Z,2.41
2023-02-12T20:21:28.137Z,2.61
2023-02-12T20:23:55.542Z,2.94
2023-02-12T20:26:23.021Z,2.97
2023-02-12T20:28:50.045Z,2.97
2023-02-12T20:31:20.079Z,3.36
2023-02-12T20:33:47.518Z,3.66
2023-02-12T20:36:14.501Z,3.91
2023-02-12T20:38:43.480Z,4.04
2023-02-12T20:41:10.698Z,4.23
2023-02-12T20:43:37.653Z,4.34
2023-02-12T20:46:13.427Z,4.71
2023-02-12T20:48:40.424Z,4.94
2023-02-12T20:51:11.305Z,4.96
2023-02-12T20:53:38.571Z,5.11
2023-02-12T20:56:20.010Z,5.31
2023-02-12T20:58:47.570Z,5.35
2023-02-12T21:01:21.430Z,5.37
2023-02-12T21:03:49.400Z,5.38
2023-02-12T21:06:15.801Z,5.33
2023-02-12T21:08:42.568Z,5.47
2023-02-12T21:11:17.808Z,5.46
2023-02-12T21:13:58.612Z,5.57
2023-02-12T21:16:34.908Z,5.53
2023-02-12T21:19:01.549Z,5.49
2023-02-12T21:21:30.883Z,5.46
2023-02-12T21:23:59.254Z,5.41
2023-02-12T21:26:27.661Z,5.47
2023-02-12T21:28:57.428Z,5.47
2023-02-12T21:31:35.772Z,5.48
2023-02-12T21:34:04.485Z,5.40
2023-02-12T21:36:39.286Z,5.35
2023-02-12T21:39:07.891Z,5.43
2023-02-12T21:41:36.935Z,5.47
2023-02-12T21:44:15.228Z,5.38
2023-02-12T21:46:42.023Z,5.40
2023-02-12T21:49:11.779Z,5.33
2023-02-12T21:51:41.182Z,5.47
2023-02-12T21:54:12.890Z,5.44
2023-02-12T21:56:41.063Z,5.48
2023-02-12T21:59:11.043Z,5.38
2023-02-12T22:01:41.395Z,5.37
2023-02-12T22:04:07.882Z,5.43
2023-02-12T22:06:39.330Z,5.36
2023-02-12T22:09:07.900Z,5.39
2023-02-12T22:11:36.286Z,5.38
2023-02-12T22:14:04.355Z,5.29
2023-02-12T22:16:31.290Z,5.44
2023-02-12T22:19:00.034Z,5.34
2023-02-12T22:21:28.828Z,5.37
2023-02-12T22:23:56.195Z,5.40
2023-02-12T22:26:25.691Z,5.35
2023-02-12T22:28:54.970Z,5.37
2023-02-12T22:31:25.082Z,5.35
2023-02-12T22:33:57.744Z,5.32
2023-02-12T22:36:25.194Z,5.30
2023-02-12T22:38:56.949Z,5.34
2023-02-12T22:41:23.742Z,5.27
2023-02-12T22:43:50.155Z,5.23
2023-02-12T22:46:17.110Z,5.24
2023-02-12T22:48:44.045Z,5.25
2023-02-12T22:51:13.197Z,5.27
2023-02-12T22:53:39.553Z,5.16
2023-02-12T22:56:08.267Z,5.23
2023-02-12T22:58:35.105Z,5.24
2023-02-12T23:01:12.867Z,5.12
2023-02-12T23:03:41.519Z,5.16
2023-02-12T23:06:13.388Z,5.18
2023-02-12T23:08:40.108Z,5.17
2023-02-12T23:11:08.530Z,5.15
2023-02-12T23:13:36.036Z,5.07
2023-02-12T23:16:02.750Z,5.07
2023-02-12T23:18:29.160Z,5.17
2023-02-12T23:20:56.043Z,5.12
2023-02-12T23:23:22.947Z,5.10
2023-02-12T23:25:49.460Z,5.04
2023-02-12T23:28:16.967Z,5.02
2023-02-12T23:30:43.463Z,5.11
2023-02-12T23:33:10.178Z,5.12
2023-02-12T23:35:36.543Z,5.07
2023-02-12T23:38:04.326Z,4.87
2023-02-12T23:40:32.334Z,5.02
2023-02-12T23:42:59.912Z,5.07
2023-02-12T23:45:27.487Z,5.03
2023-02-12T23:47:54.428Z,4.90
2023-02-12T23:50:21.173Z,4.96
2023-02-12T23:52:47.653Z,5.01
2023-02-12T23:55:14.146Z,4.95
2023-02-12T23:57:40.505Z,4.94
